createdAt,value
2023-01-11T00:01:35.547Z,10.18
2023-01-11T00:04:09.664Z,10.10
2023-01-11T00:06:56.596Z,12.60
2023-01-11T00:09:43.593Z,14.55
2023-01-11T00:12:37.546Z,12.10
2023-01-11T00:15:25.544Z,12.57
2023-01-11T00:18:06.566Z,13.07
2023-01-11T00:20:53.589Z,13.50
2023-01-11T00:23:41.624Z,13.27
2023-01-11T00:26:15.540Z,13.93
2023-01-11T00:29:03.604Z,15.65
2023-01-11T00:31:57.577Z,15.40
2023-01-11T00:34:44.535Z,16.05
2023-01-11T00:37:25.593Z,17.10
2023-01-11T00:40:20.543Z,18.60
2023-01-11T00:43:26.580Z,18.80
2023-01-11T00:46:19.270Z,20.95
2023-01-11T00:49:05.587Z,22.38
2023-01-11T00:51:46.593Z,22.80
2023-01-11T00:54:34.570Z,21.05
2023-01-11T00:57:22.600Z,24.17
2023-01-11T00:59:56.716Z,22.00
2023-01-11T01:02:45.638Z,23.08
2023-01-11T01:05:25.565Z,21.33
2023-01-11T01:08:06.868Z,21.35
2023-01-11T01:10:46.563Z,19.73
2023-01-11T01:13:50.702Z,18.20
2023-01-11T01:16:38.595Z,19.40
2023-01-11T01:19:19.778Z,22.27
2023-01-11T01:22:07.570Z,16.20
2023-01-11T01:24:41.657Z,19.98
2023-01-11T01:27:28.574Z,20.40
2023-01-11T01:30:02.668Z,19.63
2023-01-11T01:32:50.552Z,18.77
2023-01-11T01:35:31.563Z,18.05
2023-01-11T01:38:18.582Z,21.63
2023-01-11T01:41:00.598Z,24.27
2023-01-11T01:44:09.588Z,18.15
2023-01-11T01:46:56.634Z,20.00
2023-01-11T01:49:37.604Z,27.38
2023-01-11T01:52:35.574Z,39.60
2023-01-11T01:55:29.587Z,34.72
2023-01-11T01:58:04.655Z,27.63
2023-01-11T02:00:52.607Z,24.02
2023-01-11T02:03:27.657Z,31.00
2023-01-11T02:06:15.584Z,28.00
2023-01-11T02:08:59.605Z,18.60
2023-01-11T02:11:43.392Z,18.52
2023-01-11T02:14:32.570Z,19.80
2023-01-11T02:17:06.534Z,15.30
2023-01-11T02:19:57.575Z,16.40
2023-01-11T02:22:34.407Z,19.25
2023-01-11T02:25:31.584Z,18.73
2023-01-11T02:28:15.580Z,17.33
2023-01-11T02:31:02.662Z,18.08
2023-01-11T02:34:19.582Z,19.67
2023-01-11T02:37:25.576Z,20.33
2023-01-11T02:40:10.083Z,19.65
2023-01-11T02:43:26.559Z,21.25
2023-01-11T02:46:07.631Z,18.20
2023-01-11T02:49:12.600Z,21.40
2023-01-11T02:51:46.512Z,21.08
2023-01-11T02:54:35.596Z,17.27
2023-01-11T02:57:10.958Z,21.17
2023-01-11T03:00:01.577Z,21.35
2023-01-11T03:02:35.712Z,18.10
2023-01-11T03:05:27.601Z,18.95
2023-01-11T03:08:27.577Z,17.10
2023-01-11T03:11:08.579Z,16.15
2023-01-11T03:13:56.633Z,16.75
2023-01-11T03:16:33.670Z,17.27
2023-01-11T03:19:39.639Z,16.83
2023-01-11T03:22:22.676Z,19.98
2023-01-11T03:25:20.589Z,17.80
2023-01-11T03:27:54.664Z,16.05
2023-01-11T03:30:54.585Z,15.90
2023-01-11T03:33:58.640Z,13.88
2023-01-11T03:37:04.578Z,14.77
2023-01-11T03:39:54.583Z,14.38
2023-01-11T03:42:30.677Z,16.52
2023-01-11T03:45:18.583Z,17.42
2023-01-11T03:47:52.673Z,19.13
2023-01-11T03:50:40.679Z,18.58
2023-01-11T03:53:22.601Z,17.92
2023-01-11T03:56:20.574Z,17.55
2023-01-11T03:59:08.605Z,14.27
2023-01-11T04:01:42.745Z,16.58
2023-01-11T04:04:30.673Z,15.43
2023-01-11T04:07:18.601Z,15.82
2023-01-11T04:09:52.562Z,15.52
2023-01-11T04:12:40.625Z,15.20
2023-01-11T04:15:21.571Z,15.10
2023-01-11T04:18:05.059Z,14.20
2023-01-11T04:20:47.615Z,16.75
2023-01-11T04:23:28.681Z,15.05
2023-01-11T04:26:08.604Z,15.07
2023-01-11T04:28:56.561Z,15.55
2023-01-11T04:31:30.653Z,14.05
2023-01-11T04:34:18.641Z,14.55
2023-01-11T04:36:52.536Z,13.70
2023-01-11T04:39:40.572Z,13.88
2023-01-11T04:42:20.354Z,15.00
2023-01-11T04:45:07.608Z,12.48
2023-01-11T04:47:41.557Z,14.50
2023-01-11T04:50:29.667Z,13.40
2023-01-11T04:53:04.578Z,15.65
2023-01-11T04:55:52.600Z,16.23
2023-01-11T04:58:26.553Z,14.70
2023-01-11T05:01:14.620Z,14.63
2023-01-11T05:03:55.633Z,14.85
2023-01-11T05:06:43.630Z,13.32
2023-01-11T05:09:18.663Z,16.20
2023-01-11T05:12:06.613Z,15.27
2023-01-11T05:14:40.559Z,14.95
2023-01-11T05:17:29.622Z,15.25
2023-01-11T05:20:10.615Z,15.90
2023-01-11T05:22:58.595Z,13.90
2023-01-11T05:25:32.588Z,16.73
2023-01-11T05:28:20.627Z,15.45
2023-01-11T05:30:54.581Z,15.27
2023-01-11T05:33:42.622Z,15.95
2023-01-11T05:36:24.596Z,15.00
2023-01-11T05:39:05.693Z,15.13
2023-01-11T05:41:46.593Z,15.07
2023-01-11T05:44:46.277Z,12.35
2023-01-11T05:47:26.610Z,13.95
2023-01-11T05:50:07.668Z,15.18
2023-01-11T05:52:47.579Z,12.02
2023-01-11T05:55:28.673Z,13.60
2023-01-11T05:58:09.584Z,14.10
2023-01-11T06:00:50.755Z,13.15
2023-01-11T06:03:37.617Z,13.07
2023-01-11T06:06:18.575Z,14.25
2023-01-11T06:09:12.580Z,10.02
2023-01-11T06:12:00.622Z,11.63
2023-01-11T06:14:41.621Z,9.93
2023-01-11T06:17:28.612Z,11.15
2023-01-11T06:20:09.619Z,11.68
2023-01-11T06:22:56.585Z,11.25
2023-01-11T06:25:37.589Z,11.00
2023-01-11T06:28:24.593Z,10.52
2023-01-11T06:30:59.729Z,8.70
2023-01-11T06:33:47.606Z,9.43
2023-01-11T06:36:22.675Z,8.60
2023-01-11T06:39:10.604Z,7.75
2023-01-11T06:41:44.709Z,10.18
2023-01-11T06:44:31.624Z,9.82
2023-01-11T06:47:05.709Z,8.38
2023-01-11T06:49:52.612Z,9.40
2023-01-11T06:52:33.602Z,7.88
2023-01-11T06:55:21.638Z,8.05
2023-01-11T06:58:02.594Z,7.53
2023-01-11T07:00:56.623Z,7.88
2023-01-11T07:03:45.603Z,8.35
2023-01-11T07:06:19.912Z,8.48
2023-01-11T07:09:06.637Z,8.60
2023-01-11T07:11:40.688Z,8.98
2023-01-11T07:14:28.632Z,11.73
2023-01-11T07:17:02.668Z,11.07
2023-01-11T07:19:49.668Z,10.15
2023-01-11T07:22:23.680Z,7.93
2023-01-11T07:25:11.600Z,10.43
2023-01-11T07:27:52.594Z,9.80
2023-01-11T07:30:56.797Z,10.73
2023-01-11T07:33:39.599Z,11.90
2023-01-11T07:36:26.581Z,10.25
2023-01-11T07:39:07.624Z,10.52
2023-01-11T07:42:15.263Z,9.65
2023-01-11T07:45:02.613Z,10.88
2023-01-11T07:47:36.655Z,9.93
2023-01-11T07:50:24.590Z,10.63
2023-01-11T07:52:58.693Z,8.23
2023-01-11T07:55:46.625Z,9.25
2023-01-11T07:58:33.633Z,10.13
2023-01-11T08:01:07.677Z,9.52
2023-01-11T08:03:54.657Z,10.05
2023-01-11T08:06:28.723Z,9.48
2023-01-11T08:09:16.626Z,8.75
2023-01-11T08:12:16.320Z,8.60
2023-01-11T08:14:57.617Z,9.25
2023-01-11T08:17:38.784Z,6.75
2023-01-11T08:20:19.631Z,8.18
2023-01-11T08:23:07.629Z,9.32
2023-01-11T08:25:47.625Z,8.85
2023-01-11T08:28:35.596Z,8.55
2023-01-11T08:31:16.691Z,8.05
2023-01-11T08:33:57.698Z,7.75
2023-01-11T08:36:38.631Z,8.80
2023-01-11T08:39:26.603Z,8.32
2023-01-11T08:42:01.068Z,8.57
2023-01-11T08:44:48.617Z,8.63
2023-01-11T08:47:23.014Z,8.65
2023-01-11T08:50:10.640Z,8.30
2023-01-11T08:52:51.822Z,9.27
2023-01-11T08:55:39.583Z,7.95
2023-01-11T08:58:13.586Z,8.68
2023-01-11T09:01:01.646Z,7.22
2023-01-11T09:03:35.752Z,7.50
2023-01-11T09:06:25.665Z,8.90
2023-01-11T09:08:59.556Z,8.45
2023-01-11T09:12:07.613Z,6.82
2023-01-11T09:14:48.589Z,9.50
2023-01-11T09:17:29.750Z,6.03
2023-01-11T09:20:10.630Z,7.65
2023-01-11T09:23:01.617Z,7.20
2023-01-11T09:25:41.625Z,6.82
2023-01-11T09:28:22.674Z,7.78
2023-01-11T09:31:02.657Z,7.45
2023-01-11T09:33:56.580Z,7.38
2023-01-11T09:36:46.610Z,7.03
2023-01-11T09:39:30.674Z,6.20
2023-01-11T09:42:43.640Z,7.00
2023-01-11T09:45:34.666Z,6.97
2023-01-11T09:48:23.064Z,6.63
2023-01-11T09:51:11.611Z,7.65
2023-01-11T09:53:49.333Z,7.82
2023-01-11T09:59:12.633Z,6.55
2023-01-11T10:01:53.477Z,6.25
2023-01-11T10:04:42.661Z,6.60
2023-01-11T10:07:43.202Z,4.90
2023-01-11T10:18:37.473Z,7.72
2023-01-11T10:20:00.685Z,6.43
2023-01-11T10:22:57.603Z,5.78
2023-01-11T10:25:54.621Z,5.28
2023-01-11T10:28:31.967Z,6.35
2023-01-11T10:31:40.650Z,5.35
2023-01-11T10:34:33.663Z,6.07
2023-01-11T10:37:38.644Z,6.45
2023-01-11T10:40:37.711Z,6.80
2023-01-11T10:43:28.638Z,6.07
2023-01-11T10:46:08.358Z,6.25
2023-01-11T10:48:57.612Z,5.60
2023-01-11T10:51:51.614Z,6.15
2023-01-11T10:54:43.279Z,5.53
2023-01-11T10:57:37.703Z,4.85
2023-01-11T11:00:28.647Z,5.32
2023-01-11T11:03:27.899Z,5.78
2023-01-11T11:06:12.631Z,4.45
2023-01-11T11:09:07.621Z,6.20
2023-01-11T11:11:47.019Z,4.22
2023-01-11T11:14:40.631Z,5.65
2023-01-11T11:17:23.689Z,5.32
2023-01-11T11:20:11.630Z,5.20
2023-01-11T11:22:52.642Z,5.22
2023-01-11T11:25:37.717Z,4.57
2023-01-11T11:28:35.651Z,4.28
2023-01-11T11:31:23.686Z,4.18
2023-01-11T11:33:58.385Z,4.03
2023-01-11T11:36:54.616Z,4.88
2023-01-11T11:39:35.667Z,4.82
2023-01-11T11:42:22.775Z,4.53
2023-01-11T11:45:18.672Z,3.10
2023-01-11T11:48:14.613Z,3.92
2023-01-11T11:51:11.813Z,3.47
2023-01-11T11:54:02.623Z,5.20
2023-01-11T11:56:37.868Z,4.47
2023-01-11T11:59:26.705Z,5.28
2023-01-11T12:02:16.673Z,5.32
2023-01-11T12:05:05.697Z,4.47
2023-01-11T12:07:54.415Z,6.50
2023-01-11T12:10:42.804Z,4.15
2023-01-11T12:13:38.665Z,5.05
2023-01-11T12:16:34.648Z,4.17
2023-01-11T12:19:37.617Z,4.57
2023-01-11T12:22:17.851Z,4.75
2023-01-11T12:25:23.631Z,4.28
2023-01-11T12:28:01.712Z,4.10
2023-01-11T12:30:48.661Z,6.15
2023-01-11T12:33:34.782Z,4.43
2023-01-11T12:36:21.612Z,5.63
2023-01-11T12:39:37.753Z,3.67
2023-01-11T12:42:50.655Z,4.65
2023-01-11T12:46:05.711Z,4.22
2023-01-11T12:48:49.658Z,4.97
2023-01-11T12:51:57.663Z,4.40
2023-01-11T12:54:37.697Z,4.70
2023-01-11T12:57:27.638Z,4.55
2023-01-11T13:00:11.720Z,4.78
2023-01-11T13:03:17.642Z,4.63
2023-01-11T13:06:30.285Z,4.82
2023-01-11T13:09:23.637Z,5.65
2023-01-11T13:12:14.677Z,4.82
2023-01-11T13:14:56.731Z,4.40
2023-01-11T13:17:43.666Z,4.90
2023-01-11T13:20:17.704Z,5.93
2023-01-11T13:23:25.636Z,5.68
2023-01-11T13:26:07.639Z,4.55
2023-01-11T13:29:08.674Z,5.50
2023-01-11T13:31:56.653Z,5.15
2023-01-11T13:34:54.690Z,5.07
2023-01-11T13:37:48.680Z,5.90
2023-01-11T13:40:25.756Z,4.65
2023-01-11T13:43:26.684Z,5.63
2023-01-11T13:46:09.796Z,5.60
2023-01-11T13:49:03.637Z,4.32
2023-01-11T13:51:49.703Z,4.30
2023-01-11T13:54:37.681Z,3.45
2023-01-11T13:57:21.672Z,4.43
2023-01-11T14:00:20.623Z,5.00
2023-01-11T14:03:08.691Z,4.60
2023-01-11T14:05:47.813Z,5.15
2023-01-11T14:08:38.637Z,4.18
2023-01-11T14:11:44.680Z,4.88
2023-01-11T14:14:37.735Z,3.83
2023-01-11T14:17:37.665Z,5.25
2023-01-11T14:20:21.901Z,4.10
2023-01-11T14:23:11.924Z,4.20
2023-01-11T14:26:07.624Z,4.63
2023-01-11T14:29:03.744Z,5.28
2023-01-11T14:31:50.649Z,4.22
2023-01-11T14:34:50.979Z,5.05
2023-01-11T14:37:34.659Z,4.43
2023-01-11T14:40:25.749Z,4.57
2023-01-11T14:43:15.723Z,4.13
2023-01-11T14:46:14.772Z,4.28
2023-01-11T14:49:13.635Z,4.82
2023-01-11T14:51:59.827Z,5.85
2023-01-11T14:54:44.925Z,5.47
2023-01-11T14:57:46.704Z,6.03
2023-01-11T15:00:26.642Z,5.20
2023-01-11T15:03:08.624Z,5.18
2023-01-11T15:05:57.674Z,6.93
2023-01-11T15:08:48.779Z,6.47
2023-01-11T15:11:31.684Z,7.15
2023-01-11T15:14:21.644Z,6.97
2023-01-11T15:17:23.660Z,5.45
2023-01-11T15:20:12.709Z,5.45
2023-01-11T15:22:53.663Z,9.25
2023-01-11T15:25:36.712Z,8.10
2023-01-11T15:28:35.679Z,8.18
2023-01-11T15:31:36.327Z,8.45
2023-01-11T15:34:35.670Z,6.90
2023-01-11T15:37:24.637Z,5.90
2023-01-11T15:40:27.645Z,7.47
2023-01-11T15:43:24.648Z,8.00
2023-01-11T15:46:35.713Z,9.88
2023-01-11T15:49:48.758Z,8.30
2023-01-11T15:52:56.684Z,11.07
2023-01-11T15:55:36.756Z,11.63
2023-01-11T15:58:26.675Z,8.68
2023-01-11T16:01:26.683Z,12.30
2023-01-11T16:04:22.729Z,10.30
2023-01-11T16:07:26.678Z,9.82
2023-01-11T16:10:18.663Z,7.95
2023-01-11T16:13:26.639Z,6.28
2023-01-11T16:16:07.528Z,8.45
2023-01-11T16:19:00.680Z,7.55
2023-01-11T16:21:41.868Z,7.63
2023-01-11T16:24:38.637Z,6.85
2023-01-11T16:27:25.682Z,7.43
2023-01-11T16:30:06.723Z,7.25
2023-01-11T16:32:46.691Z,6.47
2023-01-11T16:35:31.756Z,7.55
2023-01-11T16:38:12.636Z,8.25
2023-01-11T16:41:02.649Z,9.05
2023-01-11T16:43:37.054Z,6.80
2023-01-11T16:46:53.652Z,7.57
2023-01-11T16:49:27.581Z,7.55
2023-01-11T16:52:35.682Z,7.13
2023-01-11T16:55:27.640Z,8.75
2023-01-11T16:58:05.728Z,6.72
2023-01-11T17:01:03.729Z,6.68
2023-01-11T17:03:49.639Z,6.90
2023-01-11T17:06:41.641Z,6.28
2023-01-11T17:09:29.535Z,7.47
2023-01-11T17:12:21.652Z,6.13
2023-01-11T17:14:58.844Z,6.32
2023-01-11T17:20:35.676Z,9.07
2023-01-11T17:23:23.727Z,6.28
2023-01-11T17:26:02.856Z,6.63
2023-01-11T17:28:54.647Z,7.82
2023-01-11T17:31:31.924Z,8.93
2023-01-11T17:36:53.721Z,8.63
2023-01-11T17:39:36.681Z,6.45
2023-01-11T17:42:39.498Z,8.02
2023-01-11T17:45:22.693Z,7.35
2023-01-11T17:48:02.727Z,7.20
2023-01-11T17:50:54.698Z,6.95
2023-01-11T17:53:49.685Z,6.55
2023-01-11T17:56:47.730Z,6.90
2023-01-11T17:59:36.741Z,6.35
2023-01-11T18:02:20.796Z,7.18
2023-01-11T18:05:08.663Z,7.35
2023-01-11T18:07:49.785Z,6.72
2023-01-11T18:10:39.798Z,7.03
2023-01-11T18:13:13.735Z,7.38
2023-01-11T18:16:01.807Z,7.35
2023-01-11T18:18:47.213Z,6.53
2023-01-11T18:21:33.661Z,5.60
2023-01-11T18:24:16.736Z,6.60
2023-01-11T18:27:14.887Z,4.72
2023-01-11T18:29:55.850Z,6.68
2023-01-11T18:32:51.649Z,6.03
2023-01-11T18:35:48.683Z,7.80
2023-01-11T18:38:30.661Z,7.85
2023-01-11T18:41:45.647Z,7.68
2023-01-11T18:44:34.662Z,6.15
2023-01-11T18:47:15.664Z,9.98
2023-01-11T18:50:03.861Z,6.38
2023-01-11T18:52:37.834Z,7.63
2023-01-11T18:55:24.672Z,7.47
2023-01-11T18:58:05.687Z,8.00
2023-01-11T19:00:59.674Z,8.90
2023-01-11T19:03:47.823Z,9.25
2023-01-11T19:06:22.722Z,6.72
2023-01-11T19:09:10.664Z,5.93
2023-01-11T19:11:44.776Z,6.30
2023-01-11T19:14:32.661Z,8.30
2023-01-11T19:17:06.937Z,9.18
2023-01-11T19:19:54.814Z,8.15
2023-01-11T19:22:35.798Z,9.80
2023-01-11T19:25:29.659Z,9.32
2023-01-11T19:28:16.679Z,9.10
2023-01-11T19:30:57.702Z,10.95
2023-01-11T19:33:51.649Z,8.70
2023-01-11T19:36:45.811Z,9.95
2023-01-11T19:39:33.667Z,7.88
2023-01-11T19:42:14.848Z,10.43
2023-01-11T19:45:08.667Z,9.77
2023-01-11T19:47:55.845Z,10.45
2023-01-11T19:50:36.663Z,11.55
2023-01-11T19:53:30.642Z,12.45
2023-01-11T19:56:17.850Z,11.63
2023-01-11T19:58:51.897Z,10.52
2023-01-11T20:01:38.796Z,10.70
2023-01-11T20:04:12.920Z,10.40
2023-01-11T20:07:01.836Z,12.63
2023-01-11T20:09:44.836Z,13.48
2023-01-11T20:12:38.822Z,13.40
2023-01-11T20:15:25.835Z,11.13
2023-01-11T20:18:06.663Z,13.73
2023-01-11T20:21:08.909Z,13.05
2023-01-11T20:23:56.668Z,11.52
2023-01-11T20:26:31.537Z,12.07
2023-01-11T20:29:19.784Z,11.27
2023-01-11T20:31:53.947Z,12.95
2023-01-11T20:34:40.674Z,13.13
2023-01-11T20:37:15.285Z,9.93
2023-01-11T20:40:02.685Z,14.48
2023-01-11T20:42:38.147Z,9.52
2023-01-11T20:45:25.659Z,14.07
2023-01-11T20:47:59.923Z,14.57
2023-01-11T20:50:46.660Z,13.32
2023-01-11T20:53:20.912Z,13.82
2023-01-11T20:56:11.929Z,12.95
2023-01-11T20:58:48.079Z,14.10
2023-01-11T21:01:35.869Z,13.93
2023-01-11T21:04:24.800Z,10.38
2023-01-11T21:06:58.687Z,13.27
2023-01-11T21:09:46.689Z,14.57
2023-01-11T21:12:26.852Z,12.07
2023-01-11T21:15:16.672Z,12.93
2023-01-11T21:17:50.932Z,14.27
2023-01-11T21:20:38.791Z,12.88
2023-01-11T21:23:15.328Z,14.30
2023-01-11T21:26:02.690Z,12.63
2023-01-11T21:28:57.733Z,14.80
2023-01-11T21:31:45.759Z,12.20
2023-01-11T21:34:20.772Z,13.05
2023-01-11T21:37:08.663Z,12.60
2023-01-11T21:39:42.752Z,13.05
2023-01-11T21:42:29.737Z,12.80
2023-01-11T21:45:05.238Z,10.40
2023-01-11T21:47:52.726Z,11.43
2023-01-11T21:50:26.771Z,11.18
2023-01-11T21:53:13.714Z,11.45
2023-01-11T21:55:47.796Z,11.18
2023-01-11T21:58:34.689Z,8.90
2023-01-11T22:01:17.564Z,10.23
2023-01-11T22:04:04.814Z,8.60
2023-01-11T22:06:45.708Z,8.48
2023-01-11T22:09:44.801Z,10.25
2023-01-11T22:12:47.701Z,8.80
2023-01-11T22:15:35.700Z,9.25
2023-01-11T22:18:11.640Z,9.20
2023-01-11T22:20:58.681Z,6.63
2023-01-11T22:23:32.772Z,9.30
2023-01-11T22:26:22.684Z,9.77
2023-01-11T22:29:23.675Z,10.68
2023-01-11T22:32:17.668Z,10.45
2023-01-11T22:35:05.680Z,10.15
2023-01-11T22:37:46.701Z,9.32
2023-01-11T22:40:40.692Z,9.23
2023-01-11T22:43:28.718Z,9.75
2023-01-11T22:46:11.671Z,9.48
2023-01-11T22:49:06.681Z,8.88
2023-01-11T22:51:54.683Z,9.55
2023-01-11T22:54:28.796Z,7.65
2023-01-11T22:57:15.725Z,7.93
2023-01-11T22:59:49.785Z,8.80
2023-01-11T23:02:36.703Z,8.80
2023-01-11T23:05:10.834Z,7.03
2023-01-11T23:07:57.740Z,6.88
2023-01-11T23:10:38.788Z,6.93
2023-01-11T23:13:50.721Z,7.45
2023-01-11T23:16:38.870Z,7.80
2023-01-11T23:19:13.796Z,7.97
2023-01-11T23:22:01.758Z,6.78
2023-01-11T23:24:42.735Z,7.18
2023-01-11T23:27:29.744Z,7.72
2023-01-11T23:30:03.842Z,7.30
2023-01-11T23:32:50.762Z,7.70
2023-01-11T23:35:31.740Z,6.88
2023-01-11T23:38:18.751Z,7.72
2023-01-11T23:41:17.753Z,5.35
2023-01-11T23:44:05.750Z,7.20
2023-01-11T23:47:04.847Z,8.63
2023-01-11T23:49:58.735Z,6.78
2023-01-11T23:52:45.726Z,8.27
2023-01-11T23:55:19.846Z,9.48
2023-01-11T23:58:16.731Z,8.50
